Hutchinson, Minnesota
Current Conditions -  °F | °C
As of 7:13 PM on Saturday 22 Nov 2014 (Local Time) from KHCD Reporting Station
Haze Haze  
Wind Chill: 28°   Ceiling: 200
Heat Index: 36°   Visibility: 1.7mi
Dew Point: 36°   Wind: 10mph
Humidity: 100%   Direction: 130°SE
Pressure: 29.55"   Gusts: 16mph
Location:  44.89°N, 94.37°W
Report Text: KHCD 230113Z AUTO 13009G14KT 1 3/4SM BR OVC002 02/02 A2955 RMK AO2 T00210021
Loading
Personal Weather Stations






























Interactive Weather Map New forecast layout! Learn more

10-Day Weather Forecast

Advertisements
Track Severe Weather on mobile